Time;durP1;ratioP1;P1;durP2;ratioP2;P2;SDS_P1;SDS_P2;PMS_P1;PMS_P2;Temp;Humidity;BMP_temperature;BMP_pressure;BME280_temperature;BME280_humidity;BME280_pressure;Samples;Min_cycle;Max_cycle;Signal;HPM_P1;HPM_P2
2023/04/08 00:00:00;;;;;;;0.10;0.10;;;;;;;;;;4959054;28;20053;-78
2023/04/08 00:02:46;;;;;;;0.10;0.10;;;;;;;;;;4960805;28;20514;-78
2023/04/08 00:05:32;;;;;;;0.10;0.10;;;;;;;;;;4959541;28;20559;-77
2023/04/08 00:08:18;;;;;;;0.10;0.10;;;;;;;;;;4959929;28;20066;-78
2023/04/08 00:11:04;;;;;;;0.10;0.10;;;;;;;;;;4942831;28;20054;-78
2023/04/08 00:13:50;;;;;;;0.10;0.10;;;;;;;;;;4948730;28;20574;-78
2023/04/08 00:16:36;;;;;;;0.10;0.10;;;;;;;;;;4960813;28;20042;-77
2023/04/08 00:19:21;;;;;;;0.13;0.13;;;;;;;;;;4960823;28;20876;-77
2023/04/08 00:22:07;;;;;;;0.10;0.10;;;;;;;;;;4961479;28;20030;-78
2023/04/08 00:24:53;;;;;;;0.10;0.10;;;;;;;;;;4958244;28;20042;-78
2023/04/08 00:27:39;;;;;;;0.10;0.10;;;;;;;;;;4961430;28;20581;-77
2023/04/08 00:30:26;;;;;;;0.10;0.10;;;;;;;;;;4960932;28;20042;-77
2023/04/08 00:33:12;;;;;;;0.10;0.10;;;;;;;;;;4960265;28;20108;-78
2023/04/08 00:35:58;;;;;;;0.10;0.10;;;;;;;;;;4959642;28;20126;-77
2023/04/08 00:38:44;;;;;;;0.15;0.15;;;;;;;;;;4948789;28;20034;-78
2023/04/08 00:41:29;;;;;;;0.17;0.17;;;;;;;;;;4962217;28;20046;-77
2023/04/08 00:44:16;;;;;;;0.17;0.17;;;;;;;;;;4960804;28;20420;-78
2023/04/08 00:47:02;;;;;;;0.10;0.10;;;;;;;;;;4961704;28;20526;-78
2023/04/08 00:49:48;;;;;;;0.10;0.10;;;;;;;;;;4962494;28;20081;-78
2023/04/08 00:52:34;;;;;;;0.10;0.10;;;;;;;;;;4960011;28;20141;-78
2023/04/08 00:55:19;;;;;;;0.10;0.10;;;;;;;;;;4960454;28;20116;-77
2023/04/08 00:58:05;;;;;;;0.10;0.10;;;;;;;;;;4959980;28;20046;-77
2023/04/08 01:01:02;;;;;;;0.10;0.10;;;;;;;;;;4958785;28;20467;-78
2023/04/08 01:04:06;;;;;;;0.10;0.10;;;;;;;;;;4959972;28;20050;-78
2023/04/08 01:07:04;;;;;;;0.10;0.10;;;;;;;;;;4960155;28;20554;-77
2023/04/08 01:10:10;;;;;;;0.10;0.10;;;;;;;;;;4959487;28;20033;-78
2023/04/08 01:12:58;;;;;;;0.10;0.10;;;;;;;;;;4958349;28;20116;-78
2023/04/08 01:15:44;;;;;;;0.10;0.10;;;;;;;;;;4962183;28;20069;-77
2023/04/08 01:18:31;;;;;;;0.10;0.10;;;;;;;;;;4946982;28;20030;-77
2023/04/08 01:21:19;;;;;;;0.10;0.10;;;;;;;;;;4940534;28;20412;-78
2023/04/08 01:24:05;;;;;;;0.20;0.20;;;;;;;;;;4941518;28;20038;-78
2023/04/08 01:26:51;;;;;;;0.10;0.10;;;;;;;;;;4926837;28;20239;-78
2023/04/08 01:29:37;;;;;;;0.10;0.10;;;;;;;;;;4925832;28;20035;-77
2023/04/08 01:32:26;;;;;;;0.10;0.10;;;;;;;;;;4938607;28;20532;-78
2023/04/08 01:35:14;;;;;;;0.10;0.10;;;;;;;;;;4929524;28;20073;-78
2023/04/08 01:38:01;;;;;;;0.10;0.10;;;;;;;;;;4938771;28;20042;-77
2023/04/08 01:40:48;;;;;;;0.20;0.20;;;;;;;;;;4939105;28;20404;-78
2023/04/08 01:43:34;;;;;;;0.10;0.10;;;;;;;;;;4941221;28;20496;-77
2023/04/08 01:46:20;;;;;;;0.15;0.15;;;;;;;;;;4939751;28;20320;-77
2023/04/08 01:49:06;;;;;;;0.10;0.10;;;;;;;;;;4941714;28;20421;-78
2023/04/08 01:51:55;;;;;;;0.10;0.10;;;;;;;;;;4942553;28;20085;-77
2023/04/08 01:54:41;;;;;;;0.10;0.10;;;;;;;;;;4940855;28;20039;-77
2023/04/08 01:57:30;;;;;;;0.10;0.10;;;;;;;;;;4941389;28;20085;-76
2023/04/08 02:00:18;;;;;;;0.10;0.10;;;;;;;;;;4939199;28;20045;-77
2023/04/08 02:03:07;;;;;;;0.13;0.13;;;;;;;;;;4943654;28;20360;-77
2023/04/08 02:05:53;;;;;;;0.10;0.10;;;;;;;;;;4942786;28;20039;-77
2023/04/08 02:08:39;;;;;;;0.10;0.10;;;;;;;;;;4932042;28;20050;-77
2023/04/08 02:11:24;;;;;;;0.10;0.10;;;;;;;;;;4942809;28;20197;-76
2023/04/08 02:14:10;;;;;;;0.10;0.10;;;;;;;;;;4943134;28;20109;-77
2023/04/08 02:17:04;;;;;;;0.10;0.10;;;;;;;;;;4935378;28;20042;-77
2023/04/08 02:19:57;;;;;;;0.15;0.15;;;;;;;;;;4949038;28;20078;-76
2023/04/08 02:22:53;;;;;;;0.10;0.10;;;;;;;;;;4966868;28;20875;-77
2023/04/08 02:25:40;;;;;;;0.17;0.17;;;;;;;;;;4962471;28;20516;-77
2023/04/08 02:28:27;;;;;;;0.10;0.10;;;;;;;;;;4965510;28;20050;-76
2023/04/08 02:31:18;;;;;;;0.10;0.10;;;;;;;;;;4961874;28;20031;-77
2023/04/08 02:34:05;;;;;;;0.10;0.10;;;;;;;;;;4963335;28;20109;-77
2023/04/08 02:36:51;;;;;;;0.20;0.20;;;;;;;;;;4968271;28;20050;-77
2023/04/08 02:39:37;;;;;;;0.10;0.10;;;;;;;;;;4961879;28;20524;-77
2023/04/08 02:42:23;;;;;;;0.10;0.10;;;;;;;;;;4973566;28;20030;-76
2023/04/08 02:45:11;;;;;;;0.10;0.10;;;;;;;;;;4961729;28;20070;-76
2023/04/08 02:47:59;;;;;;;0.10;0.10;;;;;;;;;;4975802;28;20038;-75
2023/04/08 02:50:46;;;;;;;0.10;0.10;;;;;;;;;;4960420;28;20574;-77
2023/04/08 02:53:31;;;;;;;0.10;0.10;;;;;;;;;;4968279;28;21066;-76
2023/04/08 02:56:17;;;;;;;0.10;0.10;;;;;;;;;;4960657;28;20038;-77
2023/04/08 02:59:03;;;;;;;0.15;0.15;;;;;;;;;;4962470;28;20030;-77
2023/04/08 03:01:49;;;;;;;0.20;0.20;;;;;;;;;;4963261;28;20561;-77
2023/04/08 03:04:34;;;;;;;0.10;0.10;;;;;;;;;;4963664;28;20038;-76
2023/04/08 03:07:20;;;;;;;0.10;0.10;;;;;;;;;;4963382;28;20121;-77
2023/04/08 03:10:06;;;;;;;0.17;0.17;;;;;;;;;;4963093;28;20034;-77
2023/04/08 03:12:52;;;;;;;0.20;0.20;;;;;;;;;;4959957;28;20563;-77
2023/04/08 03:15:37;;;;;;;0.20;0.20;;;;;;;;;;4962628;28;20189;-75
2023/04/08 03:18:23;;;;;;;0.40;0.30;;;;;;;;;;4961472;28;20054;-77
2023/04/08 03:21:09;;;;;;;0.60;0.32;;;;;;;;;;4960586;28;20042;-76
2023/04/08 03:23:55;;;;;;;1.13;0.57;;;;;;;;;;4961705;28;20034;-77
2023/04/08 03:26:40;;;;;;;1.02;0.50;;;;;;;;;;4961548;28;20065;-76
2023/04/08 03:29:26;;;;;;;1.10;0.60;;;;;;;;;;4962173;28;20673;-74
2023/04/08 03:32:12;;;;;;;1.23;0.70;;;;;;;;;;4960580;28;20600;-78
2023/04/08 03:34:57;;;;;;;1.35;0.63;;;;;;;;;;4964266;28;20193;-76
2023/04/08 03:37:43;;;;;;;0.98;0.52;;;;;;;;;;4962892;28;20102;-77
2023/04/08 03:40:29;;;;;;;1.08;0.60;;;;;;;;;;4975003;28;20077;-77
2023/04/08 03:43:15;;;;;;;1.17;0.70;;;;;;;;;;4962679;28;20072;-76
2023/04/08 03:46:01;;;;;;;1.52;0.82;;;;;;;;;;4959526;28;20284;-77
2023/04/08 03:48:46;;;;;;;1.33;0.80;;;;;;;;;;4962202;28;20443;-76
2023/04/08 03:51:32;;;;;;;0.40;0.30;;;;;;;;;;4961321;28;20057;-78
2023/04/08 03:54:18;;;;;;;0.85;0.50;;;;;;;;;;4961383;28;20089;-77
2023/04/08 03:57:03;;;;;;;0.90;0.57;;;;;;;;;;4960974;28;20101;-79
2023/04/08 03:59:49;;;;;;;0.40;0.30;;;;;;;;;;4962377;28;20496;-79
2023/04/08 04:02:35;;;;;;;0.80;0.45;;;;;;;;;;4962498;28;20266;-78
2023/04/08 04:05:21;;;;;;;0.90;0.50;;;;;;;;;;4959749;28;20128;-77
2023/04/08 04:08:08;;;;;;;0.20;0.20;;;;;;;;;;4962440;28;20070;-77
2023/04/08 04:10:53;;;;;;;0.17;0.17;;;;;;;;;;4961144;28;20033;-77
2023/04/08 04:13:42;;;;;;;0.20;0.20;;;;;;;;;;4960298;28;20042;-78
2023/04/08 04:16:27;;;;;;;0.10;0.10;;;;;;;;;;4959533;28;20040;-77
2023/04/08 04:19:13;;;;;;;0.10;0.10;;;;;;;;;;4960081;28;20610;-78
2023/04/08 04:21:59;;;;;;;0.10;0.10;;;;;;;;;;4959261;28;20062;-77
2023/04/08 04:24:47;;;;;;;0.10;0.10;;;;;;;;;;4961222;28;20119;-78
2023/04/08 04:27:34;;;;;;;0.20;0.20;;;;;;;;;;4959448;28;20275;-75
2023/04/08 04:30:20;;;;;;;0.20;0.20;;;;;;;;;;4961519;28;20037;-74
2023/04/08 04:33:06;;;;;;;0.10;0.10;;;;;;;;;;4962381;28;20057;-75
2023/04/08 04:35:52;;;;;;;0.20;0.20;;;;;;;;;;4961898;28;20350;-76
2023/04/08 04:38:38;;;;;;;0.10;0.10;;;;;;;;;;4960549;28;20146;-74
2023/04/08 04:41:24;;;;;;;0.10;0.10;;;;;;;;;;4970586;28;20382;-75
2023/04/08 04:44:10;;;;;;;0.10;0.10;;;;;;;;;;4963083;28;20030;-76
2023/04/08 04:46:55;;;;;;;0.10;0.10;;;;;;;;;;4959809;28;20803;-75
2023/04/08 04:49:41;;;;;;;0.10;0.10;;;;;;;;;;4959763;28;20443;-77
2023/04/08 04:52:29;;;;;;;0.10;0.10;;;;;;;;;;4949481;28;20141;-76
2023/04/08 04:55:15;;;;;;;0.17;0.17;;;;;;;;;;4958905;28;20431;-77
2023/04/08 04:58:01;;;;;;;0.13;0.13;;;;;;;;;;4960485;28;20038;-76
2023/04/08 05:00:46;;;;;;;0.20;0.20;;;;;;;;;;4960572;28;20583;-76
2023/04/08 05:03:32;;;;;;;0.20;0.20;;;;;;;;;;4960749;28;20081;-76
2023/04/08 05:06:18;;;;;;;0.10;0.10;;;;;;;;;;4960282;28;20539;-75
2023/04/08 05:09:04;;;;;;;0.10;0.10;;;;;;;;;;4964429;28;20074;-74
2023/04/08 05:11:49;;;;;;;0.20;0.20;;;;;;;;;;4959830;28;20031;-76
2023/04/08 05:14:36;;;;;;;0.15;0.15;;;;;;;;;;4961055;28;20030;-77
2023/04/08 05:17:22;;;;;;;0.20;0.20;;;;;;;;;;4960400;28;20042;-75
2023/04/08 05:20:07;;;;;;;0.10;0.10;;;;;;;;;;4963162;28;20046;-79
2023/04/08 05:22:53;;;;;;;0.10;0.10;;;;;;;;;;4964373;28;20134;-77
2023/04/08 05:25:39;;;;;;;0.13;0.13;;;;;;;;;;4959564;28;20038;-77
2023/04/08 05:28:25;;;;;;;0.10;0.10;;;;;;;;;;4962399;28;20050;-77
2023/04/08 05:31:10;;;;;;;0.10;0.10;;;;;;;;;;4959585;28;20048;-76
2023/04/08 05:33:56;;;;;;;0.20;0.20;;;;;;;;;;4962421;28;20369;-77
2023/04/08 05:36:42;;;;;;;0.10;0.10;;;;;;;;;;4961577;28;20346;-77
2023/04/08 05:39:28;;;;;;;0.20;0.20;;;;;;;;;;4965698;28;20037;-76
2023/04/08 05:42:14;;;;;;;0.10;0.10;;;;;;;;;;4962411;28;20494;-76
2023/04/08 05:45:00;;;;;;;0.10;0.10;;;;;;;;;;4963955;28;20874;-78
2023/04/08 05:47:46;;;;;;;0.10;0.10;;;;;;;;;;4965502;28;20380;-75
2023/04/08 05:50:33;;;;;;;0.10;0.10;;;;;;;;;;4963244;28;20026;-77
2023/04/08 05:53:23;;;;;;;0.20;0.20;;;;;;;;;;4966475;28;20514;-79
2023/04/08 05:56:09;;;;;;;0.10;0.10;;;;;;;;;;4962280;28;20121;-74
2023/04/08 05:58:55;;;;;;;0.10;0.10;;;;;;;;;;4976762;28;20521;-78
2023/04/08 06:01:40;;;;;;;0.10;0.10;;;;;;;;;;4963319;28;20488;-76
2023/04/08 06:04:26;;;;;;;0.10;0.10;;;;;;;;;;4964764;28;20125;-75
2023/04/08 06:07:12;;;;;;;0.15;0.15;;;;;;;;;;4965889;28;20121;-76
2023/04/08 06:09:58;;;;;;;0.10;0.10;;;;;;;;;;4960174;28;20313;-78
2023/04/08 06:12:43;;;;;;;0.13;0.13;;;;;;;;;;4963017;28;20034;-78
2023/04/08 06:15:29;;;;;;;0.20;0.20;;;;;;;;;;4963880;28;20061;-79
2023/04/08 06:18:16;;;;;;;0.15;0.15;;;;;;;;;;4965630;28;20022;-77
2023/04/08 06:21:01;;;;;;;0.10;0.10;;;;;;;;;;4960787;28;20609;-78
2023/04/08 06:23:48;;;;;;;0.10;0.10;;;;;;;;;;4963668;28;20519;-75
2023/04/08 06:26:33;;;;;;;0.20;0.20;;;;;;;;;;4963909;28;20062;-77
2023/04/08 06:29:20;;;;;;;0.20;0.20;;;;;;;;;;4964606;28;20043;-76
2023/04/08 06:32:05;;;;;;;0.20;0.20;;;;;;;;;;4976834;28;20159;-78
2023/04/08 06:34:51;;;;;;;0.10;0.10;;;;;;;;;;4963502;28;20050;-76
2023/04/08 06:37:37;;;;;;;0.20;0.20;;;;;;;;;;4963246;28;20042;-77
2023/04/08 06:40:23;;;;;;;0.10;0.10;;;;;;;;;;4961644;28;20046;-76
2023/04/08 06:43:08;;;;;;;0.10;0.10;;;;;;;;;;4965407;28;20173;-77
2023/04/08 06:45:58;;;;;;;0.10;0.10;;;;;;;;;;4967582;28;20038;-75
2023/04/08 06:48:44;;;;;;;0.20;0.20;;;;;;;;;;4961179;28;20039;-77
2023/04/08 06:51:30;;;;;;;0.10;0.10;;;;;;;;;;4961877;28;20037;-78
2023/04/08 06:54:15;;;;;;;0.20;0.20;;;;;;;;;;4964227;28;20085;-77
2023/04/08 06:57:03;;;;;;;0.10;0.10;;;;;;;;;;4964252;28;20031;-76
2023/04/08 06:59:48;;;;;;;0.10;0.10;;;;;;;;;;4963121;28;20795;-75
2023/04/08 07:02:34;;;;;;;0.10;0.10;;;;;;;;;;4964467;28;20035;-75
2023/04/08 07:05:21;;;;;;;0.20;0.20;;;;;;;;;;4962601;28;20039;-77
2023/04/08 07:08:07;;;;;;;0.13;0.13;;;;;;;;;;4965109;28;20579;-75
2023/04/08 07:10:52;;;;;;;0.20;0.20;;;;;;;;;;4960330;28;20310;-76
2023/04/08 07:13:38;;;;;;;0.10;0.10;;;;;;;;;;4961907;28;20105;-77
2023/04/08 07:16:24;;;;;;;0.10;0.10;;;;;;;;;;4962305;28;20058;-78
2023/04/08 07:19:10;;;;;;;0.20;0.20;;;;;;;;;;4962447;28;20035;-76
2023/04/08 07:21:56;;;;;;;0.10;0.10;;;;;;;;;;4959654;28;20034;-77
2023/04/08 07:24:44;;;;;;;0.15;0.15;;;;;;;;;;4959983;28;20055;-76
2023/04/08 07:27:32;;;;;;;0.20;0.20;;;;;;;;;;4963252;28;20034;-77
2023/04/08 07:30:18;;;;;;;0.10;0.10;;;;;;;;;;4961349;28;20043;-76
2023/04/08 07:33:03;;;;;;;0.10;0.10;;;;;;;;;;4968659;28;20415;-75
2023/04/08 07:35:49;;;;;;;0.10;0.10;;;;;;;;;;4958756;28;20034;-75
2023/04/08 07:38:35;;;;;;;0.10;0.10;;;;;;;;;;4963227;28;20057;-76
2023/04/08 07:41:21;;;;;;;0.13;0.13;;;;;;;;;;4959825;28;20049;-75
2023/04/08 07:44:06;;;;;;;0.10;0.10;;;;;;;;;;4960849;28;20110;-76
2023/04/08 07:46:52;;;;;;;0.10;0.10;;;;;;;;;;4961198;28;20037;-76
2023/04/08 07:49:38;;;;;;;0.10;0.10;;;;;;;;;;4957941;28;20538;-78
2023/04/08 07:52:25;;;;;;;0.10;0.10;;;;;;;;;;4964601;28;20038;-76
2023/04/08 07:55:10;;;;;;;0.10;0.10;;;;;;;;;;4964677;28;20034;-77
2023/04/08 07:57:56;;;;;;;0.10;0.10;;;;;;;;;;4961122;28;20069;-77
2023/04/08 08:00:42;;;;;;;0.10;0.10;;;;;;;;;;4956201;28;20093;-77
2023/04/08 08:03:27;;;;;;;0.10;0.10;;;;;;;;;;4960002;28;20038;-78
2023/04/08 08:06:13;;;;;;;0.10;0.10;;;;;;;;;;4959803;28;20431;-76
2023/04/08 08:08:59;;;;;;;0.10;0.10;;;;;;;;;;4961254;28;20038;-76
2023/04/08 08:11:45;;;;;;;0.10;0.10;;;;;;;;;;4957703;28;20259;-78
2023/04/08 08:14:31;;;;;;;0.10;0.10;;;;;;;;;;4961368;28;20081;-77
2023/04/08 08:17:17;;;;;;;0.10;0.10;;;;;;;;;;4960721;28;20474;-79
2023/04/08 08:20:03;;;;;;;0.13;0.13;;;;;;;;;;4961017;28;20058;-77
2023/04/08 08:22:49;;;;;;;0.10;0.10;;;;;;;;;;4961169;28;20030;-75
2023/04/08 08:25:35;;;;;;;0.10;0.10;;;;;;;;;;4958740;28;20149;-78
2023/04/08 08:28:21;;;;;;;0.20;0.20;;;;;;;;;;4960923;28;20348;-78
2023/04/08 08:31:06;;;;;;;0.10;0.10;;;;;;;;;;4958374;28;20237;-77
2023/04/08 08:33:52;;;;;;;0.10;0.10;;;;;;;;;;4957599;28;20037;-77
2023/04/08 08:36:38;;;;;;;0.10;0.10;;;;;;;;;;4956890;28;20038;-77
2023/04/08 08:39:23;;;;;;;0.10;0.10;;;;;;;;;;4958121;28;20479;-77
2023/04/08 08:42:24;;;;;;;0.10;0.10;;;;;;;;;;4957793;28;20034;-78
2023/04/08 08:45:10;;;;;;;0.10;0.10;;;;;;;;;;4959195;28;20096;-76
2023/04/08 08:47:56;;;;;;;0.10;0.10;;;;;;;;;;4948778;28;21207;-78
2023/04/08 08:50:42;;;;;;;0.13;0.13;;;;;;;;;;4954696;28;20582;-77
2023/04/08 08:53:28;;;;;;;0.10;0.10;;;;;;;;;;4946143;28;20035;-76
2023/04/08 08:56:14;;;;;;;0.10;0.10;;;;;;;;;;4961265;28;20068;-77
2023/04/08 08:59:00;;;;;;;0.10;0.10;;;;;;;;;;4960592;28;20324;-77
2023/04/08 09:01:46;;;;;;;0.10;0.10;;;;;;;;;;4959806;28;20235;-76
2023/04/08 09:04:32;;;;;;;0.10;0.10;;;;;;;;;;4964012;28;20041;-75
2023/04/08 09:07:22;;;;;;;0.10;0.10;;;;;;;;;;4960957;28;20038;-78
2023/04/08 09:10:09;;;;;;;0.17;0.17;;;;;;;;;;4959699;28;20089;-78
2023/04/08 09:12:55;;;;;;;0.20;0.20;;;;;;;;;;4962867;28;20476;-78
2023/04/08 09:16:00;;;;;;;0.10;0.10;;;;;;;;;;4975627;28;20476;-75
2023/04/08 09:18:47;;;;;;;0.10;0.10;;;;;;;;;;4965829;28;20038;-76
2023/04/08 09:21:34;;;;;;;0.10;0.10;;;;;;;;;;4965915;28;20096;-75
2023/04/08 09:24:29;;;;;;;0.10;0.10;;;;;;;;;;4965716;28;20046;-76
2023/04/08 09:27:15;;;;;;;0.20;0.20;;;;;;;;;;4969930;28;20034;-77
2023/04/08 09:30:12;;;;;;;0.10;0.10;;;;;;;;;;4962329;28;20804;-78
2023/04/08 09:32:58;;;;;;;0.10;0.10;;;;;;;;;;4963751;28;20081;-75
2023/04/08 09:35:45;;;;;;;0.20;0.20;;;;;;;;;;4964036;28;20035;-77
2023/04/08 09:38:31;;;;;;;0.10;0.10;;;;;;;;;;4966641;28;20396;-75
2023/04/08 09:41:19;;;;;;;0.13;0.13;;;;;;;;;;4966353;28;20129;-78
2023/04/08 09:44:06;;;;;;;0.10;0.10;;;;;;;;;;4965720;28;20045;-78
2023/04/08 09:46:56;;;;;;;0.10;0.10;;;;;;;;;;4962518;28;20050;-75
2023/04/08 09:49:42;;;;;;;0.20;0.20;;;;;;;;;;4960609;28;20647;-75
2023/04/08 09:52:32;;;;;;;0.10;0.10;;;;;;;;;;4966328;28;20030;-78
2023/04/08 09:55:20;;;;;;;0.20;0.20;;;;;;;;;;4963219;28;20476;-78
2023/04/08 09:58:16;;;;;;;0.20;0.20;;;;;;;;;;4966041;28;20511;-76
2023/04/08 10:01:02;;;;;;;0.17;0.17;;;;;;;;;;4971916;28;20495;-79
2023/04/08 10:03:51;;;;;;;0.10;0.10;;;;;;;;;;4962849;28;20081;-76
2023/04/08 10:06:37;;;;;;;0.10;0.10;;;;;;;;;;4962724;28;20124;-77
2023/04/08 10:09:22;;;;;;;0.10;0.10;;;;;;;;;;4962871;28;20039;-78
2023/04/08 10:12:08;;;;;;;0.10;0.10;;;;;;;;;;4963676;28;20034;-76
2023/04/08 10:15:13;;;;;;;0.10;0.10;;;;;;;;;;4960233;28;20184;-76
2023/04/08 10:18:02;;;;;;;0.10;0.10;;;;;;;;;;4963384;28;20035;-77
2023/04/08 10:20:48;;;;;;;0.10;0.10;;;;;;;;;;4962115;28;20047;-75
2023/04/08 10:24:06;;;;;;;0.10;0.10;;;;;;;;;;4963560;28;20169;-78
2023/04/08 10:26:51;;;;;;;0.17;0.17;;;;;;;;;;4956107;28;20042;-75
2023/04/08 10:29:37;;;;;;;0.13;0.13;;;;;;;;;;4962997;28;20030;-76
2023/04/08 10:32:29;;;;;;;0.10;0.10;;;;;;;;;;4966433;28;20284;-78
2023/04/08 10:35:15;;;;;;;0.10;0.10;;;;;;;;;;4975621;28;20054;-78
2023/04/08 10:38:01;;;;;;;0.10;0.10;;;;;;;;;;4961839;28;20073;-76
2023/04/08 10:40:47;;;;;;;0.10;0.10;;;;;;;;;;4958864;28;20673;-77
2023/04/08 10:43:33;;;;;;;0.10;0.10;;;;;;;;;;4962794;28;20259;-77
2023/04/08 10:46:20;;;;;;;0.10;0.10;;;;;;;;;;4960682;28;20064;-78
2023/04/08 10:49:07;;;;;;;0.10;0.10;;;;;;;;;;4960856;28;20295;-76
2023/04/08 10:51:53;;;;;;;0.10;0.10;;;;;;;;;;4963226;28;20038;-78
2023/04/08 10:54:45;;;;;;;0.10;0.10;;;;;;;;;;4961191;28;20042;-75
2023/04/08 10:57:31;;;;;;;0.10;0.10;;;;;;;;;;4962850;28;20348;-78
2023/04/08 11:00:17;;;;;;;0.20;0.20;;;;;;;;;;4963151;28;20267;-79
2023/04/08 11:03:03;;;;;;;0.20;0.20;;;;;;;;;;4962732;28;20046;-79
2023/04/08 11:05:49;;;;;;;0.20;0.20;;;;;;;;;;4958463;28;20129;-78
2023/04/08 11:08:38;;;;;;;0.13;0.13;;;;;;;;;;4974605;28;20035;-77
2023/04/08 11:11:28;;;;;;;0.17;0.17;;;;;;;;;;4961651;28;20121;-77
2023/04/08 11:14:16;;;;;;;0.10;0.10;;;;;;;;;;4963851;28;20061;-77
2023/04/08 11:17:04;;;;;;;0.20;0.20;;;;;;;;;;4960595;28;20311;-77
2023/04/08 11:19:51;;;;;;;0.15;0.15;;;;;;;;;;4960881;28;20128;-80
2023/04/08 11:22:38;;;;;;;0.10;0.10;;;;;;;;;;4959924;28;20069;-76
2023/04/08 11:25:23;;;;;;;0.10;0.10;;;;;;;;;;4961629;28;20109;-77
2023/04/08 11:28:13;;;;;;;0.20;0.20;;;;;;;;;;4961352;28;20082;-73
2023/04/08 11:30:58;;;;;;;0.10;0.10;;;;;;;;;;4955059;28;20039;-76
2023/04/08 11:33:46;;;;;;;0.10;0.10;;;;;;;;;;4961218;28;20039;-77
2023/04/08 11:36:34;;;;;;;0.10;0.10;;;;;;;;;;4972887;28;20408;-75
2023/04/08 11:39:21;;;;;;;0.10;0.10;;;;;;;;;;4962285;28;20499;-75
2023/04/08 11:42:07;;;;;;;0.10;0.10;;;;;;;;;;4961550;28;20304;-77
2023/04/08 11:44:53;;;;;;;0.20;0.20;;;;;;;;;;4961599;28;20606;-76
2023/04/08 11:47:41;;;;;;;0.10;0.10;;;;;;;;;;4960871;28;20027;-75
2023/04/08 11:50:28;;;;;;;0.20;0.20;;;;;;;;;;4958816;28;20270;-77
2023/04/08 11:53:18;;;;;;;0.20;0.20;;;;;;;;;;4962949;28;20503;-75
2023/04/08 11:56:15;;;;;;;0.20;0.20;;;;;;;;;;5069580;27;20532;-76
2023/04/08 11:59:00;;;;;;;0.20;0.20;;;;;;;;;;5055269;28;20047;-77
2023/04/08 12:01:46;;;;;;;0.10;0.10;;;;;;;;;;5018643;28;20056;-78
2023/04/08 12:04:32;;;;;;;0.20;0.20;;;;;;;;;;4996341;28;20581;-76
2023/04/08 12:07:18;;;;;;;0.20;0.20;;;;;;;;;;4997293;28;20036;-77
2023/04/08 12:10:04;;;;;;;0.10;0.10;;;;;;;;;;4997851;28;20135;-78
2023/04/08 12:12:50;;;;;;;0.20;0.20;;;;;;;;;;4997050;28;20045;-76
2023/04/08 12:15:38;;;;;;;0.10;0.10;;;;;;;;;;4996667;28;20062;-77
2023/04/08 12:18:24;;;;;;;0.20;0.20;;;;;;;;;;4997561;28;20042;-76
2023/04/08 12:21:10;;;;;;;0.10;0.10;;;;;;;;;;4996780;28;20034;-78
2023/04/08 12:23:56;;;;;;;0.17;0.17;;;;;;;;;;4996434;28;20038;-77
2023/04/08 12:26:41;;;;;;;0.17;0.17;;;;;;;;;;4995973;28;20062;-76
2023/04/08 12:29:28;;;;;;;0.20;0.20;;;;;;;;;;5023402;28;20576;-77
2023/04/08 12:32:13;;;;;;;0.20;0.20;;;;;;;;;;4996128;28;20042;-76
2023/04/08 12:34:59;;;;;;;0.17;0.17;;;;;;;;;;4995850;28;20247;-76
2023/04/08 12:37:45;;;;;;;0.20;0.20;;;;;;;;;;4997941;28;20638;-78
2023/04/08 12:40:31;;;;;;;0.17;0.17;;;;;;;;;;4998612;28;20038;-77
2023/04/08 12:43:17;;;;;;;0.20;0.20;;;;;;;;;;4998918;28;20304;-76
2023/04/08 12:46:03;;;;;;;0.10;0.10;;;;;;;;;;4996574;28;20057;-77
2023/04/08 12:48:48;;;;;;;0.10;0.10;;;;;;;;;;4996574;28;20290;-77
2023/04/08 12:51:34;;;;;;;0.10;0.10;;;;;;;;;;4992952;28;20030;-77
2023/04/08 12:54:20;;;;;;;0.10;0.10;;;;;;;;;;4995516;28;20060;-79
2023/04/08 12:57:06;;;;;;;0.10;0.10;;;;;;;;;;4993974;28;20034;-76
2023/04/08 12:59:52;;;;;;;0.10;0.10;;;;;;;;;;4994343;28;20037;-77
2023/04/08 13:02:37;;;;;;;0.10;0.10;;;;;;;;;;5014909;28;20037;-76
2023/04/08 13:05:24;;;;;;;0.10;0.10;;;;;;;;;;5013229;28;20446;-77
2023/04/08 13:08:13;;;;;;;0.10;0.10;;;;;;;;;;5005792;28;20037;-76
2023/04/08 13:10:59;;;;;;;0.10;0.10;;;;;;;;;;5001132;28;20034;-77
2023/04/08 13:13:45;;;;;;;0.10;0.10;;;;;;;;;;4998964;28;20037;-78
2023/04/08 13:16:32;;;;;;;0.10;0.10;;;;;;;;;;5003614;28;20030;-75
2023/04/08 13:19:17;;;;;;;0.20;0.20;;;;;;;;;;5002931;28;20088;-75
2023/04/08 13:22:03;;;;;;;0.30;0.30;;;;;;;;;;5003181;28;20056;-76
2023/04/08 13:24:49;;;;;;;0.10;0.10;;;;;;;;;;5003668;28;20033;-77
2023/04/08 13:27:34;;;;;;;0.10;0.10;;;;;;;;;;5003328;28;20095;-77
2023/04/08 13:30:20;;;;;;;0.10;0.10;;;;;;;;;;5011827;28;20518;-78
2023/04/08 13:33:06;;;;;;;0.10;0.10;;;;;;;;;;5001859;28;20073;-77
2023/04/08 13:35:51;;;;;;;0.10;0.10;;;;;;;;;;5002348;28;20037;-77
2023/04/08 13:38:37;;;;;;;0.10;0.10;;;;;;;;;;5004759;28;20112;-77
2023/04/08 13:41:24;;;;;;;0.10;0.10;;;;;;;;;;5002085;28;20038;-78
2023/04/08 13:44:10;;;;;;;0.10;0.10;;;;;;;;;;5002343;28;20033;-77
2023/04/08 13:46:55;;;;;;;0.10;0.10;;;;;;;;;;5007527;28;20076;-76
2023/04/08 13:49:41;;;;;;;0.10;0.10;;;;;;;;;;5002070;28;20022;-76
2023/04/08 13:52:27;;;;;;;0.10;0.10;;;;;;;;;;5002697;28;20070;-77
2023/04/08 13:55:12;;;;;;;0.10;0.10;;;;;;;;;;5002805;28;20403;-76
2023/04/08 13:57:58;;;;;;;0.10;0.10;;;;;;;;;;5003130;28;20038;-77
2023/04/08 14:00:44;;;;;;;0.10;0.10;;;;;;;;;;5012657;28;20045;-77
2023/04/08 14:03:30;;;;;;;0.10;0.10;;;;;;;;;;5004057;28;20048;-77
2023/04/08 14:06:16;;;;;;;0.10;0.10;;;;;;;;;;5001505;28;20034;-77
2023/04/08 14:09:02;;;;;;;0.13;0.13;;;;;;;;;;4999054;28;20274;-76
2023/04/08 14:11:47;;;;;;;0.10;0.10;;;;;;;;;;5000947;28;20449;-77
2023/04/08 14:14:33;;;;;;;0.10;0.10;;;;;;;;;;5008016;28;20322;-77
2023/04/08 14:17:19;;;;;;;0.10;0.10;;;;;;;;;;5005416;28;20038;-76
2023/04/08 14:20:05;;;;;;;0.10;0.10;;;;;;;;;;5000936;28;20033;-77
2023/04/08 14:22:50;;;;;;;0.10;0.10;;;;;;;;;;4998651;28;20034;-76
2023/04/08 14:25:36;;;;;;;0.10;0.10;;;;;;;;;;5001101;28;20030;-77
2023/04/08 14:28:22;;;;;;;0.10;0.10;;;;;;;;;;5002480;28;20096;-76
2023/04/08 14:31:07;;;;;;;0.10;0.10;;;;;;;;;;4999711;28;20227;-76
2023/04/08 14:33:53;;;;;;;0.10;0.10;;;;;;;;;;5000665;28;20059;-77
2023/04/08 14:36:39;;;;;;;0.10;0.10;;;;;;;;;;4998946;28;20651;-76
2023/04/08 14:39:25;;;;;;;0.10;0.10;;;;;;;;;;5000111;28;20583;-76
2023/04/08 14:42:11;;;;;;;0.10;0.10;;;;;;;;;;5002489;28;20064;-77
2023/04/08 14:44:57;;;;;;;0.10;0.10;;;;;;;;;;5006062;28;20069;-78
2023/04/08 14:47:42;;;;;;;0.10;0.10;;;;;;;;;;5000949;28;20770;-76
2023/04/08 14:50:30;;;;;;;0.10;0.10;;;;;;;;;;5001690;28;20033;-76
2023/04/08 14:53:16;;;;;;;0.10;0.10;;;;;;;;;;5000735;28;20030;-77
2023/04/08 14:56:03;;;;;;;0.10;0.10;;;;;;;;;;5002742;28;20092;-77
2023/04/08 14:58:48;;;;;;;0.10;0.10;;;;;;;;;;5002165;28;20087;-77
2023/04/08 15:01:34;;;;;;;0.10;0.10;;;;;;;;;;5016823;28;20049;-76
2023/04/08 15:04:20;;;;;;;0.10;0.10;;;;;;;;;;4994991;28;20037;-78
2023/04/08 15:07:06;;;;;;;0.10;0.10;;;;;;;;;;4995506;28;20034;-78
2023/04/08 15:09:53;;;;;;;0.10;0.10;;;;;;;;;;4996579;28;20062;-77
2023/04/08 15:12:38;;;;;;;0.10;0.10;;;;;;;;;;4984644;28;20052;-77
2023/04/08 15:15:24;;;;;;;0.10;0.10;;;;;;;;;;5016474;28;20033;-77
2023/04/08 15:18:10;;;;;;;0.10;0.10;;;;;;;;;;5022220;28;20047;-76
2023/04/08 15:20:56;;;;;;;0.10;0.10;;;;;;;;;;5018233;28;20032;-78
2023/04/08 15:23:42;;;;;;;0.10;0.10;;;;;;;;;;5018102;28;20035;-78
2023/04/08 15:26:31;;;;;;;0.10;0.10;;;;;;;;;;5021723;28;20041;-79
2023/04/08 15:29:17;;;;;;;0.10;0.10;;;;;;;;;;5018093;28;20034;-78
2023/04/08 15:32:02;;;;;;;0.10;0.10;;;;;;;;;;5018377;28;20125;-77
2023/04/08 15:34:49;;;;;;;0.17;0.17;;;;;;;;;;5016159;28;20507;-77
2023/04/08 15:37:35;;;;;;;0.10;0.10;;;;;;;;;;5018049;28;20457;-78
2023/04/08 15:40:20;;;;;;;0.10;0.10;;;;;;;;;;5015944;28;20442;-78
2023/04/08 15:43:08;;;;;;;0.10;0.10;;;;;;;;;;5018179;28;21608;-78
2023/04/08 15:45:54;;;;;;;0.10;0.10;;;;;;;;;;5014745;28;20037;-77
2023/04/08 15:48:41;;;;;;;0.20;0.20;;;;;;;;;;5019471;28;20503;-77
2023/04/08 15:51:27;;;;;;;0.20;0.20;;;;;;;;;;5016476;28;20495;-78
2023/04/08 15:54:13;;;;;;;0.20;0.20;;;;;;;;;;5018725;28;20056;-78
2023/04/08 15:56:59;;;;;;;0.10;0.10;;;;;;;;;;5024036;28;20037;-78
2023/04/08 15:59:45;;;;;;;0.10;0.10;;;;;;;;;;5010585;28;20143;-78
2023/04/08 16:02:31;;;;;;;0.20;0.20;;;;;;;;;;5012828;28;20152;-76
2023/04/08 16:05:16;;;;;;;0.10;0.10;;;;;;;;;;5017672;28;20122;-78
2023/04/08 16:08:03;;;;;;;0.10;0.10;;;;;;;;;;5013791;28;20106;-77
2023/04/08 16:10:49;;;;;;;0.10;0.10;;;;;;;;;;5016716;28;20065;-78
2023/04/08 16:13:37;;;;;;;0.10;0.10;;;;;;;;;;4999958;28;20181;-78
2023/04/08 16:16:23;;;;;;;0.10;0.10;;;;;;;;;;5016248;28;20398;-77
2023/04/08 16:19:09;;;;;;;0.10;0.10;;;;;;;;;;5016685;28;20509;-77
2023/04/08 16:21:55;;;;;;;0.10;0.10;;;;;;;;;;5016603;28;20033;-78
2023/04/08 16:24:41;;;;;;;0.10;0.10;;;;;;;;;;5016810;28;20042;-78
2023/04/08 16:27:26;;;;;;;0.10;0.10;;;;;;;;;;5017758;28;20868;-77
2023/04/08 16:30:12;;;;;;;0.10;0.10;;;;;;;;;;5015720;28;20026;-76
2023/04/08 16:32:58;;;;;;;0.10;0.10;;;;;;;;;;5016327;28;20056;-79
2023/04/08 16:35:44;;;;;;;0.10;0.10;;;;;;;;;;5016814;28;20048;-77
2023/04/08 16:38:29;;;;;;;0.10;0.10;;;;;;;;;;5006266;28;20565;-74